sensor_id;sensor_type;location;lat;lon;timestamp;pressure;altitude;pressure_sealevel;temperature;humidity
58534;BME280;44109;52.398;7.024;2022-08-19T00:01:24;101141.63;;;18.45;85.43
58534;BME280;44109;52.398;7.024;2022-08-19T00:03:53;101143.63;;;18.44;84.81
58534;BME280;44109;52.398;7.024;2022-08-19T00:06:21;101136.03;;;18.41;84.28
58534;BME280;44109;52.398;7.024;2022-08-19T00:08:48;101143.25;;;18.42;84.25
58534;BME280;44109;52.398;7.024;2022-08-19T00:11:17;101146.06;;;18.39;84.31
58534;BME280;44109;52.398;7.024;2022-08-19T00:13:46;101143.69;;;18.37;84.24
58534;BME280;44109;52.398;7.024;2022-08-19T00:16:17;101145.88;;;18.15;85.51
58534;BME280;44109;52.398;7.024;2022-08-19T00:18:45;101141.13;;;18.09;85.95
58534;BME280;44109;52.398;7.024;2022-08-19T00:21:13;101144.66;;;18.16;84.94
58534;BME280;44109;52.398;7.024;2022-08-19T00:23:41;101141.06;;;18.16;84.26
58534;BME280;44109;52.398;7.024;2022-08-19T00:26:09;101135.44;;;18.16;83.97
58534;BME280;44109;52.398;7.024;2022-08-19T00:28:38;101137.09;;;18.13;83.89
58534;BME280;44109;52.398;7.024;2022-08-19T00:31:07;101137.09;;;18.10;83.94
58534;BME280;44109;52.398;7.024;2022-08-19T00:33:37;101141.97;;;18.06;83.79
58534;BME280;44109;52.398;7.024;2022-08-19T00:36:07;101134.34;;;18.03;83.58
58534;BME280;44109;52.398;7.024;2022-08-19T00:38:37;101134.78;;;17.97;83.61
58534;BME280;44109;52.398;7.024;2022-08-19T00:41:07;101135.63;;;17.94;83.94
58534;BME280;44109;52.398;7.024;2022-08-19T00:43:36;101136.03;;;17.93;83.92
58534;BME280;44109;52.398;7.024;2022-08-19T00:46:03;101141.66;;;17.89;83.63
58534;BME280;44109;52.398;7.024;2022-08-19T00:48:32;101136.19;;;17.68;85.51
58534;BME280;44109;52.398;7.024;2022-08-19T00:51:04;101129.03;;;17.60;86.90
58534;BME280;44109;52.398;7.024;2022-08-19T00:53:32;101139.78;;;17.72;86.03
58534;BME280;44109;52.398;7.024;2022-08-19T00:56:02;101131.75;;;17.74;85.42
58534;BME280;44109;52.398;7.024;2022-08-19T00:58:33;101141.38;;;17.73;85.51
58534;BME280;44109;52.398;7.024;2022-08-19T01:01:04;101134.56;;;17.70;84.86
58534;BME280;44109;52.398;7.024;2022-08-19T01:03:33;101135.78;;;17.66;85.22
58534;BME280;44109;52.398;7.024;2022-08-19T01:06:02;101133.38;;;17.68;84.98
58534;BME280;44109;52.398;7.024;2022-08-19T01:08:30;101134.59;;;17.67;84.96
58534;BME280;44109;52.398;7.024;2022-08-19T01:10:58;101127.38;;;17.66;85.13
58534;BME280;44109;52.398;7.024;2022-08-19T01:13:30;101123.75;;;17.65;85.04
58534;BME280;44109;52.398;7.024;2022-08-19T01:16:04;101117.34;;;17.65;84.96
58534;BME280;44109;52.398;7.024;2022-08-19T01:18:37;101111.31;;;17.66;84.96
58534;BME280;44109;52.398;7.024;2022-08-19T01:21:12;101101.34;;;17.62;84.92
58534;BME280;44109;52.398;7.024;2022-08-19T01:23:50;101100.59;;;17.58;85.19
58534;BME280;44109;52.398;7.024;2022-08-19T01:26:21;101095.38;;;17.53;85.01
58534;BME280;44109;52.398;7.024;2022-08-19T01:28:52;101105.03;;;17.52;85.14
58534;BME280;44109;52.398;7.024;2022-08-19T01:31:24;101107.50;;;17.39;87.43
58534;BME280;44109;52.398;7.024;2022-08-19T01:33:57;101115.47;;;17.44;86.97
58534;BME280;44109;52.398;7.024;2022-08-19T01:36:32;101115.88;;;17.42;86.67
58534;BME280;44109;52.398;7.024;2022-08-19T01:39:05;101113.53;;;17.34;86.50
58534;BME280;44109;52.398;7.024;2022-08-19T01:41:35;101111.16;;;17.32;86.03
58534;BME280;44109;52.398;7.024;2022-08-19T01:44:03;101117.53;;;17.36;85.77
58534;BME280;44109;52.398;7.024;2022-08-19T01:46:31;101111.94;;;17.33;85.58
58534;BME280;44109;52.398;7.024;2022-08-19T01:48:59;101110.34;;;17.35;85.88
58534;BME280;44109;52.398;7.024;2022-08-19T01:51:27;101120.78;;;17.31;86.08
58534;BME280;44109;52.398;7.024;2022-08-19T01:53:56;101109.56;;;17.31;85.98
58534;BME280;44109;52.398;7.024;2022-08-19T01:56:25;101119.97;;;17.31;85.96
58534;BME280;44109;52.398;7.024;2022-08-19T01:58:56;101118.41;;;17.26;86.12
58534;BME280;44109;52.398;7.024;2022-08-19T02:01:28;101112.78;;;17.26;86.07
58534;BME280;44109;52.398;7.024;2022-08-19T02:03:58;101120.00;;;17.27;86.18
58534;BME280;44109;52.398;7.024;2022-08-19T02:06:27;101114.75;;;17.29;86.56
58534;BME280;44109;52.398;7.024;2022-08-19T02:08:55;101106.34;;;17.25;86.53
58534;BME280;44109;52.398;7.024;2022-08-19T02:11:26;101105.97;;;17.27;86.02
58534;BME280;44109;52.398;7.024;2022-08-19T02:13:57;101100.38;;;17.23;86.10
58534;BME280;44109;52.398;7.024;2022-08-19T02:16:27;101102.41;;;17.19;86.12
58534;BME280;44109;52.398;7.024;2022-08-19T02:18:54;101104.03;;;17.17;85.66
58534;BME280;44109;52.398;7.024;2022-08-19T02:21:23;101104.84;;;17.14;85.75
58534;BME280;44109;52.398;7.024;2022-08-19T02:23:51;101106.03;;;17.13;85.62
58534;BME280;44109;52.398;7.024;2022-08-19T02:26:19;101106.44;;;17.11;85.69
58534;BME280;44109;52.398;7.024;2022-08-19T02:28:48;101106.06;;;17.09;86.06
58534;BME280;44109;52.398;7.024;2022-08-19T02:31:18;101108.06;;;17.02;85.78
58534;BME280;44109;52.398;7.024;2022-08-19T02:33:48;101110.88;;;17.02;85.61
58534;BME280;44109;52.398;7.024;2022-08-19T02:36:16;101113.69;;;17.02;85.74
58534;BME280;44109;52.398;7.024;2022-08-19T02:38:44;101113.31;;;16.99;85.67
58534;BME280;44109;52.398;7.024;2022-08-19T02:41:15;101112.09;;;16.97;85.85
58534;BME280;44109;52.398;7.024;2022-08-19T02:43:44;101102.53;;;16.94;85.94
58534;BME280;44109;52.398;7.024;2022-08-19T02:46:15;101108.09;;;16.98;85.84
58534;BME280;44109;52.398;7.024;2022-08-19T02:48:47;101094.50;;;16.89;85.48
58534;BME280;44109;52.398;7.024;2022-08-19T02:51:17;101102.91;;;16.89;85.79
58534;BME280;44109;52.398;7.024;2022-08-19T02:53:46;101097.72;;;16.91;85.92
58534;BME280;44109;52.398;7.024;2022-08-19T02:56:14;101100.16;;;16.86;86.16
58534;BME280;44109;52.398;7.024;2022-08-19T02:58:42;101107.75;;;16.85;85.92
58534;BME280;44109;52.398;7.024;2022-08-19T03:01:11;101113.75;;;16.84;85.96
58534;BME280;44109;52.398;7.024;2022-08-19T03:03:47;101125.75;;;16.84;85.86
58534;BME280;44109;52.398;7.024;2022-08-19T03:06:16;101121.78;;;16.82;86.09
58534;BME280;44109;52.398;7.024;2022-08-19T03:08:45;101120.16;;;16.84;85.94
58534;BME280;44109;52.398;7.024;2022-08-19T03:11:17;101124.16;;;16.83;86.23
58534;BME280;44109;52.398;7.024;2022-08-19T03:13:46;101128.59;;;16.77;86.25
58534;BME280;44109;52.398;7.024;2022-08-19T03:16:15;101115.00;;;16.72;86.16
58534;BME280;44109;52.398;7.024;2022-08-19T03:18:43;101115.78;;;16.62;87.39
58534;BME280;44109;52.398;7.024;2022-08-19T03:21:17;101122.97;;;16.70;86.58
58534;BME280;44109;52.398;7.024;2022-08-19T03:23:46;101125.78;;;16.73;86.77
58534;BME280;44109;52.398;7.024;2022-08-19T03:26:14;101122.59;;;16.71;87.11
58534;BME280;44109;52.398;7.024;2022-08-19T03:28:41;101113.34;;;16.71;86.68
58534;BME280;44109;52.398;7.024;2022-08-19T03:31:13;101112.19;;;16.72;86.52
58534;BME280;44109;52.398;7.024;2022-08-19T03:33:41;101109.75;;;16.70;86.38
58534;BME280;44109;52.398;7.024;2022-08-19T03:36:10;101111.38;;;16.75;86.42
58534;BME280;44109;52.398;7.024;2022-08-19T03:38:43;101118.56;;;16.69;86.33
58534;BME280;44109;52.398;7.024;2022-08-19T03:41:14;101117.81;;;16.72;86.38
58534;BME280;44109;52.398;7.024;2022-08-19T03:43:43;101116.97;;;16.68;86.33
58534;BME280;44109;52.398;7.024;2022-08-19T03:46:14;101102.59;;;16.59;86.20
58534;BME280;44109;52.398;7.024;2022-08-19T03:48:44;101108.19;;;16.62;86.04
58534;BME280;44109;52.398;7.024;2022-08-19T03:51:16;101109.78;;;16.63;86.00
58534;BME280;44109;52.398;7.024;2022-08-19T03:53:47;101123.78;;;16.60;86.14
58534;BME280;44109;52.398;7.024;2022-08-19T03:56:15;101106.56;;;16.58;85.74
58534;BME280;44109;52.398;7.024;2022-08-19T03:58:44;101111.00;;;16.55;85.90
58534;BME280;44109;52.398;7.024;2022-08-19T04:01:13;101106.63;;;16.54;85.93
58534;BME280;44109;52.398;7.024;2022-08-19T04:03:44;101102.22;;;16.49;85.82
58534;BME280;44109;52.398;7.024;2022-08-19T04:06:14;101103.44;;;16.45;86.47
58534;BME280;44109;52.398;7.024;2022-08-19T04:08:44;101093.03;;;16.38;86.90
58534;BME280;44109;52.398;7.024;2022-08-19T04:11:16;101103.81;;;16.43;86.92
58534;BME280;44109;52.398;7.024;2022-08-19T04:13:46;101099.44;;;16.32;87.74
58534;BME280;44109;52.398;7.024;2022-08-19T04:16:14;101098.66;;;16.31;87.97
58534;BME280;44109;52.398;7.024;2022-08-19T04:18:42;101090.69;;;16.05;88.57
58534;BME280;44109;52.398;7.024;2022-08-19T04:21:15;101091.44;;;15.80;91.05
58534;BME280;44109;52.398;7.024;2022-08-19T04:23:45;101095.88;;;15.92;91.38
58534;BME280;44109;52.398;7.024;2022-08-19T04:26:15;101100.28;;;16.00;91.20
58534;BME280;44109;52.398;7.024;2022-08-19T04:28:44;101093.06;;;16.17;89.84
58534;BME280;44109;52.398;7.024;2022-08-19T04:31:13;101092.25;;;16.27;88.84
58534;BME280;44109;52.398;7.024;2022-08-19T04:33:42;101091.03;;;16.28;88.60
58534;BME280;44109;52.398;7.024;2022-08-19T04:36:16;101089.03;;;16.25;88.79
58534;BME280;44109;52.398;7.024;2022-08-19T04:38:46;101088.28;;;16.14;89.06
58534;BME280;44109;52.398;7.024;2022-08-19T04:41:16;101089.06;;;16.14;89.46
58534;BME280;44109;52.398;7.024;2022-08-19T04:44:01;101089.88;;;16.22;88.83
58534;BME280;44109;52.398;7.024;2022-08-19T04:46:29;101082.66;;;16.21;88.46
58534;BME280;44109;52.398;7.024;2022-08-19T04:48:58;101093.06;;;16.31;88.20
58534;BME280;44109;52.398;7.024;2022-08-19T04:51:27;101088.25;;;16.32;87.78
58534;BME280;44109;52.398;7.024;2022-08-19T04:53:57;101101.03;;;16.36;87.79
58534;BME280;44109;52.398;7.024;2022-08-19T04:56:27;101101.03;;;16.40;87.38
58534;BME280;44109;52.398;7.024;2022-08-19T04:58:56;101101.00;;;16.43;87.43
58534;BME280;44109;52.398;7.024;2022-08-19T05:01:25;101109.81;;;16.45;87.41
58534;BME280;44109;52.398;7.024;2022-08-19T05:03:56;101105.44;;;16.44;87.54
58534;BME280;44109;52.398;7.024;2022-08-19T05:06:24;101114.59;;;16.48;87.41
58534;BME280;44109;52.398;7.024;2022-08-19T05:08:52;101121.00;;;16.53;87.51
58534;BME280;44109;52.398;7.024;2022-08-19T05:11:23;101112.19;;;16.58;87.43
58534;BME280;44109;52.398;7.024;2022-08-19T05:13:54;101116.97;;;16.64;87.64
58534;BME280;44109;52.398;7.024;2022-08-19T05:16:24;101115.78;;;16.69;87.86
58534;BME280;44109;52.398;7.024;2022-08-19T05:18:54;101115.38;;;16.74;87.80
58534;BME280;44109;52.398;7.024;2022-08-19T05:21:41;101119.34;;;16.91;88.26
58534;BME280;44109;52.398;7.024;2022-08-19T05:24:27;101123.31;;;17.01;88.54
58534;BME280;44109;52.398;7.024;2022-08-19T05:26:56;101120.06;;;17.06;89.28
58534;BME280;44109;52.398;7.024;2022-08-19T05:29:26;101110.38;;;17.21;89.41
58534;BME280;44109;52.398;7.024;2022-08-19T05:31:54;101114.31;;;17.38;89.60
58534;BME280;44109;52.398;7.024;2022-08-19T05:34:23;101109.41;;;17.53;89.91
58534;BME280;44109;52.398;7.024;2022-08-19T05:36:53;101105.78;;;17.56;90.46
58534;BME280;44109;52.398;7.024;2022-08-19T05:39:25;101105.41;;;17.54;90.12
58534;BME280;44109;52.398;7.024;2022-08-19T05:41:56;101106.09;;;17.72;91.33
58534;BME280;44109;52.398;7.024;2022-08-19T05:44:29;101117.59;;;17.95;91.15
58534;BME280;44109;52.398;7.024;2022-08-19T05:46:58;101112.44;;;18.35;90.60
58534;BME280;44109;52.398;7.024;2022-08-19T05:49:27;101123.53;;;18.87;91.75
58534;BME280;44109;52.398;7.024;2022-08-19T05:51:55;101130.75;;;19.22;89.51
58534;BME280;44109;52.398;7.024;2022-08-19T05:54:23;101120.28;;;19.54;90.28
58534;BME280;44109;52.398;7.024;2022-08-19T05:56:52;101116.56;;;19.87;91.83
58534;BME280;44109;52.398;7.024;2022-08-19T05:59:21;101109.84;;;20.05;91.29
58534;BME280;44109;52.398;7.024;2022-08-19T06:01:53;101118.56;;;20.14;89.55
58534;BME280;44109;52.398;7.024;2022-08-19T06:04:21;101121.00;;;20.12;87.27
58534;BME280;44109;52.398;7.024;2022-08-19T06:06:51;101122.66;;;20.09;85.81
58534;BME280;44109;52.398;7.024;2022-08-19T06:09:21;101114.44;;;19.95;82.78
58534;BME280;44109;52.398;7.024;2022-08-19T06:11:51;101117.31;;;19.91;82.75
58534;BME280;44109;52.398;7.024;2022-08-19T06:14:23;101121.28;;;19.94;83.03
58534;BME280;44109;52.398;7.024;2022-08-19T06:16:54;101122.34;;;20.04;83.50
58534;BME280;44109;52.398;7.024;2022-08-19T06:19:23;101107.94;;;19.98;82.81
58534;BME280;44109;52.398;7.024;2022-08-19T06:21:51;101118.25;;;20.08;83.34
58534;BME280;44109;52.398;7.024;2022-08-19T06:24:23;101127.25;;;20.23;83.84
58534;BME280;44109;52.398;7.024;2022-08-19T06:26:53;101125.22;;;20.23;83.48
58534;BME280;44109;52.398;7.024;2022-08-19T06:29:24;101120.78;;;20.26;82.98
58534;BME280;44109;52.398;7.024;2022-08-19T06:31:56;101123.69;;;20.42;83.57
58534;BME280;44109;52.398;7.024;2022-08-19T06:34:26;101108.00;;;20.41;82.44
58534;BME280;44109;52.398;7.024;2022-08-19T06:36:59;101116.16;;;20.59;83.70
58534;BME280;44109;52.398;7.024;2022-08-19T06:39:32;101115.22;;;20.66;82.55
58534;BME280;44109;52.398;7.024;2022-08-19T06:42:03;101113.50;;;20.72;82.15
58534;BME280;44109;52.398;7.024;2022-08-19T06:44:35;101116.31;;;21.12;83.98
58534;BME280;44109;52.398;7.024;2022-08-19T06:47:08;101117.78;;;21.00;80.63
58534;BME280;44109;52.398;7.024;2022-08-19T06:49:37;101119.38;;;21.57;80.90
58534;BME280;44109;52.398;7.024;2022-08-19T06:52:05;101114.75;;;21.99;80.49
58534;BME280;44109;52.398;7.024;2022-08-19T06:54:35;101112.91;;;22.09;77.52
58534;BME280;44109;52.398;7.024;2022-08-19T06:57:03;101114.13;;;21.92;76.30
58534;BME280;44109;52.398;7.024;2022-08-19T06:59:32;101121.03;;;22.40;77.25
58534;BME280;44109;52.398;7.024;2022-08-19T07:02:02;101113.81;;;22.97;75.48
58534;BME280;44109;52.398;7.024;2022-08-19T07:04:35;101115.50;;;23.36;72.99
58534;BME280;44109;52.398;7.024;2022-08-19T07:07:07;101107.94;;;23.59;71.98
58534;BME280;44109;52.398;7.024;2022-08-19T07:09:39;101118.81;;;24.59;73.47
58534;BME280;44109;52.398;7.024;2022-08-19T07:12:11;101116.13;;;24.77;67.81
58534;BME280;44109;52.398;7.024;2022-08-19T07:14:41;101125.31;;;24.46;67.08
58534;BME280;44109;52.398;7.024;2022-08-19T07:17:12;101121.06;;;24.86;66.51
58534;BME280;44109;52.398;7.024;2022-08-19T07:19:41;101133.72;;;25.38;65.15
58534;BME280;44109;52.398;7.024;2022-08-19T07:22:09;101123.81;;;25.42;65.55
58534;BME280;44109;52.398;7.024;2022-08-19T07:24:37;101117.81;;;25.40;63.58
58534;BME280;44109;52.398;7.024;2022-08-19T07:27:06;101100.28;;;26.31;64.94
58534;BME280;44109;52.398;7.024;2022-08-19T07:29:36;101102.34;;;26.40;62.31
58534;BME280;44109;52.398;7.024;2022-08-19T07:32:04;101114.06;;;26.51;60.14
58534;BME280;44109;52.398;7.024;2022-08-19T07:34:32;101116.09;;;27.15;59.16
58534;BME280;44109;52.398;7.024;2022-08-19T07:37:05;101125.47;;;26.51;59.63
58534;BME280;44109;52.398;7.024;2022-08-19T07:39:36;101124.84;;;25.58;61.33
58534;BME280;44109;52.398;7.024;2022-08-19T07:42:08;101124.47;;;26.36;61.35
58534;BME280;44109;52.398;7.024;2022-08-19T07:44:37;101124.22;;;25.85;61.38
58534;BME280;44109;52.398;7.024;2022-08-19T07:47:05;101100.56;;;26.06;61.34
58534;BME280;44109;52.398;7.024;2022-08-19T07:49:33;101133.63;;;26.22;60.59
58534;BME280;44109;52.398;7.024;2022-08-19T07:52:06;101123.25;;;26.46;61.11
58534;BME280;44109;52.398;7.024;2022-08-19T07:54:37;101128.63;;;26.90;58.98
58534;BME280;44109;52.398;7.024;2022-08-19T07:57:07;101128.94;;;26.74;60.63
58534;BME280;44109;52.398;7.024;2022-08-19T07:59:35;101131.84;;;25.13;63.19
58534;BME280;44109;52.398;7.024;2022-08-19T08:02:04;101134.19;;;24.23;67.37
58534;BME280;44109;52.398;7.024;2022-08-19T08:04:32;101152.50;;;25.35;64.74
58534;BME280;44109;52.398;7.024;2022-08-19T08:07:19;101138.19;;;26.19;60.59
58534;BME280;44109;52.398;7.024;2022-08-19T08:10:06;101140.25;;;26.19;60.33
58534;BME280;44109;52.398;7.024;2022-08-19T08:12:39;101142.66;;;25.27;62.98
58534;BME280;44109;52.398;7.024;2022-08-19T08:15:10;101142.72;;;25.98;63.44
58534;BME280;44109;52.398;7.024;2022-08-19T08:17:45;101149.50;;;26.01;60.97
58534;BME280;44109;52.398;7.024;2022-08-19T08:20:13;101156.25;;;25.54;61.79
58534;BME280;44109;52.398;7.024;2022-08-19T08:22:44;101161.22;;;25.19;64.50
58534;BME280;44109;52.398;7.024;2022-08-19T08:25:30;101173.03;;;26.51;60.40
58534;BME280;44109;52.398;7.024;2022-08-19T08:27:58;101161.66;;;26.88;59.61
58534;BME280;44109;52.398;7.024;2022-08-19T08:30:27;101167.78;;;26.31;59.89
58534;BME280;44109;52.398;7.024;2022-08-19T08:32:56;101175.91;;;26.11;60.11
58534;BME280;44109;52.398;7.024;2022-08-19T08:35:24;101170.09;;;25.21;63.65
58534;BME280;44109;52.398;7.024;2022-08-19T08:37:54;101170.50;;;24.97;64.56
58534;BME280;44109;52.398;7.024;2022-08-19T08:40:28;101179.81;;;24.76;66.46
58534;BME280;44109;52.398;7.024;2022-08-19T08:43:02;101175.50;;;25.81;63.97
58534;BME280;44109;52.398;7.024;2022-08-19T08:45:34;101179.59;;;25.80;61.72
58534;BME280;44109;52.398;7.024;2022-08-19T08:48:16;101173.84;;;26.79;58.79
58534;BME280;44109;52.398;7.024;2022-08-19T08:50:49;101169.00;;;26.21;58.69
58534;BME280;44109;52.398;7.024;2022-08-19T08:53:22;101170.84;;;26.83;58.20
58534;BME280;44109;52.398;7.024;2022-08-19T08:55:51;101168.78;;;26.06;58.76
58534;BME280;44109;52.398;7.024;2022-08-19T08:58:25;101162.50;;;26.20;59.60
58534;BME280;44109;52.398;7.024;2022-08-19T09:00:58;101161.41;;;26.18;58.54
58534;BME280;44109;52.398;7.024;2022-08-19T09:03:27;101146.78;;;25.88;58.42
58534;BME280;44109;52.398;7.024;2022-08-19T09:06:00;101163.31;;;26.21;58.65
58534;BME280;44109;52.398;7.024;2022-08-19T09:08:40;101164.06;;;26.62;56.84
58534;BME280;44109;52.398;7.024;2022-08-19T09:11:35;101163.13;;;25.44;61.06
58534;BME280;44109;52.398;7.024;2022-08-19T09:14:23;101157.97;;;26.32;58.19
58534;BME280;44109;52.398;7.024;2022-08-19T09:17:03;101159.47;;;25.43;59.71
58534;BME280;44109;52.398;7.024;2022-08-19T09:19:35;101153.41;;;25.54;59.62
58534;BME280;44109;52.398;7.024;2022-08-19T09:22:03;101143.44;;;25.80;59.43
58534;BME280;44109;52.398;7.024;2022-08-19T09:24:32;101156.09;;;25.58;59.04
58534;BME280;44109;52.398;7.024;2022-08-19T09:27:01;101149.94;;;25.59;58.46
58534;BME280;44109;52.398;7.024;2022-08-19T09:29:30;101156.22;;;25.76;59.12
58534;BME280;44109;52.398;7.024;2022-08-19T09:31:57;101154.94;;;26.17;57.99
58534;BME280;44109;52.398;7.024;2022-08-19T09:34:25;101145.81;;;25.82;58.51
58534;BME280;44109;52.398;7.024;2022-08-19T09:36:55;101156.88;;;25.80;57.96
58534;BME280;44109;52.398;7.024;2022-08-19T09:39:24;101153.00;;;26.05;57.42
58534;BME280;44109;52.398;7.024;2022-08-19T09:41:53;101152.84;;;26.09;56.91
58534;BME280;44109;52.398;7.024;2022-08-19T09:44:21;101164.50;;;26.01;58.26
58534;BME280;44109;52.398;7.024;2022-08-19T09:46:49;101149.00;;;25.31;57.60
58534;BME280;44109;52.398;7.024;2022-08-19T09:49:18;101144.97;;;25.72;56.97
58534;BME280;44109;52.398;7.024;2022-08-19T09:51:49;101141.78;;;26.11;55.52
58534;BME280;44109;52.398;7.024;2022-08-19T09:54:19;101145.94;;;25.78;56.37
58534;BME280;44109;52.398;7.024;2022-08-19T09:56:47;101145.66;;;25.54;58.12
58534;BME280;44109;52.398;7.024;2022-08-19T09:59:16;101141.41;;;25.81;56.24
58534;BME280;44109;52.398;7.024;2022-08-19T10:01:44;101126.94;;;26.06;56.53
58534;BME280;44109;52.398;7.024;2022-08-19T10:04:11;101143.44;;;26.39;55.73
58534;BME280;44109;52.398;7.024;2022-08-19T10:06:40;101141.88;;;26.47;55.54
58534;BME280;44109;52.398;7.024;2022-08-19T10:09:09;101144.19;;;26.12;55.84
58534;BME280;44109;52.398;7.024;2022-08-19T10:11:40;101145.69;;;26.44;54.62
58534;BME280;44109;52.398;7.024;2022-08-19T10:14:08;101142.16;;;26.22;55.01
58534;BME280;44109;52.398;7.024;2022-08-19T10:16:37;101145.41;;;26.02;53.82
58534;BME280;44109;52.398;7.024;2022-08-19T10:19:07;101129.28;;;26.48;53.48
58534;BME280;44109;52.398;7.024;2022-08-19T10:21:35;101131.84;;;26.15;53.70
58534;BME280;44109;52.398;7.024;2022-08-19T10:24:05;101134.78;;;25.93;54.47
58534;BME280;44109;52.398;7.024;2022-08-19T10:26:35;101141.47;;;26.09;53.62
58534;BME280;44109;52.398;7.024;2022-08-19T10:29:07;101137.59;;;26.43;52.80
58534;BME280;44109;52.398;7.024;2022-08-19T10:31:35;101138.44;;;26.71;52.96
58534;BME280;44109;52.398;7.024;2022-08-19T10:34:04;101129.06;;;26.98;52.20
58534;BME280;44109;52.398;7.024;2022-08-19T10:36:34;101130.53;;;27.12;52.39
58534;BME280;44109;52.398;7.024;2022-08-19T10:39:08;101128.00;;;27.14;52.47
58534;BME280;44109;52.398;7.024;2022-08-19T10:41:39;101125.75;;;27.18;51.31
58534;BME280;44109;52.398;7.024;2022-08-19T10:44:11;101129.09;;;26.79;51.93
58534;BME280;44109;52.398;7.024;2022-08-19T10:46:42;101133.53;;;26.44;53.06
58534;BME280;44109;52.398;7.024;2022-08-19T10:49:11;101125.16;;;26.59;50.83
58534;BME280;44109;52.398;7.024;2022-08-19T10:51:39;101125.13;;;26.95;52.65
58534;BME280;44109;52.398;7.024;2022-08-19T10:54:24;101121.00;;;27.15;51.32
58534;BME280;44109;52.398;7.024;2022-08-19T10:57:12;101120.78;;;27.88;50.13
58534;BME280;44109;52.398;7.024;2022-08-19T10:59:39;101118.38;;;28.20;49.58
58534;BME280;44109;52.398;7.024;2022-08-19T11:02:10;101116.75;;;28.52;49.20
58534;BME280;44109;52.398;7.024;2022-08-19T11:04:39;101117.16;;;28.60;46.72
58534;BME280;44109;52.398;7.024;2022-08-19T11:07:07;101113.41;;;28.53;45.17
58534;BME280;44109;52.398;7.024;2022-08-19T11:09:39;101128.75;;;28.80;47.76
58534;BME280;44109;52.398;7.024;2022-08-19T11:12:08;101122.47;;;29.05;47.32
58534;BME280;44109;52.398;7.024;2022-08-19T11:14:38;101117.97;;;29.14;47.79
58534;BME280;44109;52.398;7.024;2022-08-19T11:17:07;101120.63;;;29.32;46.26
58534;BME280;44109;52.398;7.024;2022-08-19T11:19:37;101121.28;;;28.11;47.76
58534;BME280;44109;52.398;7.024;2022-08-19T11:22:07;101120.38;;;28.91;46.74
58534;BME280;44109;52.398;7.024;2022-08-19T11:24:35;101120.91;;;28.66;44.55
58534;BME280;44109;52.398;7.024;2022-08-19T11:27:05;101119.97;;;28.21;44.63
58534;BME280;44109;52.398;7.024;2022-08-19T11:29:35;101122.09;;;28.59;45.05
58534;BME280;44109;52.398;7.024;2022-08-19T11:32:08;101107.91;;;28.50;45.15
58534;BME280;44109;52.398;7.024;2022-08-19T11:34:37;101111.81;;;28.91;45.51
58534;BME280;44109;52.398;7.024;2022-08-19T11:37:05;101112.66;;;28.20;46.38
58534;BME280;44109;52.398;7.024;2022-08-19T11:39:35;101111.34;;;27.73;46.58
58534;BME280;44109;52.398;7.024;2022-08-19T11:42:04;101106.06;;;27.90;46.66
58534;BME280;44109;52.398;7.024;2022-08-19T11:44:54;101100.25;;;27.75;46.59
58534;BME280;44109;52.398;7.024;2022-08-19T11:47:23;101090.75;;;27.78;47.07
58534;BME280;44109;52.398;7.024;2022-08-19T11:49:52;101081.84;;;27.85;45.76
58534;BME280;44109;52.398;7.024;2022-08-19T11:52:20;101100.31;;;27.56;46.01
58534;BME280;44109;52.398;7.024;2022-08-19T11:54:47;101103.13;;;27.05;46.53
58534;BME280;44109;52.398;7.024;2022-08-19T11:57:15;101096.66;;;27.14;46.22
58534;BME280;44109;52.398;7.024;2022-08-19T11:59:48;101092.03;;;27.68;45.24
58534;BME280;44109;52.398;7.024;2022-08-19T12:02:16;101086.09;;;28.62;45.35
58534;BME280;44109;52.398;7.024;2022-08-19T12:04:46;101089.97;;;28.49;45.37
58534;BME280;44109;52.398;7.024;2022-08-19T12:07:14;101075.19;;;28.90;43.03
58534;BME280;44109;52.398;7.024;2022-08-19T12:09:41;101095.00;;;29.23;42.42
58534;BME280;44109;52.398;7.024;2022-08-19T12:12:09;101094.59;;;29.60;42.17
58534;BME280;44109;52.398;7.024;2022-08-19T12:14:37;101099.25;;;29.27;41.29
58534;BME280;44109;52.398;7.024;2022-08-19T12:17:05;101088.88;;;28.86;42.83
58534;BME280;44109;52.398;7.024;2022-08-19T12:19:35;101093.91;;;29.35;41.85
58534;BME280;44109;52.398;7.024;2022-08-19T12:22:06;101095.88;;;29.29;41.17
58534;BME280;44109;52.398;7.024;2022-08-19T12:24:34;101090.47;;;29.31;41.58
58534;BME280;44109;52.398;7.024;2022-08-19T12:27:01;101094.78;;;28.43;43.27
58534;BME280;44109;52.398;7.024;2022-08-19T12:29:29;101091.25;;;28.00;45.84
58534;BME280;44109;52.398;7.024;2022-08-19T12:31:58;101093.00;;;28.22;44.28
58534;BME280;44109;52.398;7.024;2022-08-19T12:34:28;101090.06;;;27.83;45.79
58534;BME280;44109;52.398;7.024;2022-08-19T12:36:57;101092.91;;;28.16;44.92
58534;BME280;44109;52.398;7.024;2022-08-19T12:39:27;101094.41;;;28.26;44.73
58534;BME280;44109;52.398;7.024;2022-08-19T12:41:56;101092.53;;;27.99;45.65
58534;BME280;44109;52.398;7.024;2022-08-19T12:44:24;101091.47;;;27.54;45.51
58534;BME280;44109;52.398;7.024;2022-08-19T12:46:52;101092.78;;;27.44;46.19
58534;BME280;44109;52.398;7.024;2022-08-19T12:49:19;101085.25;;;27.98;45.44
58534;BME280;44109;52.398;7.024;2022-08-19T12:51:47;101095.78;;;28.55;44.78
58534;BME280;44109;52.398;7.024;2022-08-19T12:54:14;101096.22;;;28.63;44.28
58534;BME280;44109;52.398;7.024;2022-08-19T12:56:43;101095.22;;;29.04;43.41
58534;BME280;44109;52.398;7.024;2022-08-19T12:59:11;101077.44;;;28.71;42.77
58534;BME280;44109;52.398;7.024;2022-08-19T13:01:40;101091.81;;;27.90;43.15
58534;BME280;44109;52.398;7.024;2022-08-19T13:04:07;101077.38;;;27.51;45.82
58534;BME280;44109;52.398;7.024;2022-08-19T13:06:35;101089.72;;;27.90;45.42